Time;durP1;ratioP1;P1;durP2;ratioP2;P2;SDS_P1;SDS_P2;PMS_P1;PMS_P2;Temp;Humidity;BMP_temperature;BMP_pressure;BME280_temperature;BME280_humidity;BME280_pressure;Samples;Min_cycle;Max_cycle;Signal;HPM_P1;HPM_P2
2023/05/06 00:01:15;;;;;;;7.78;5.60;;;;;;;14.54;100.00;99911.31;4474830;31;34127;-77
2023/05/06 00:04:02;;;;;;;8.75;5.53;;;;;;;14.39;100.00;99912.66;4496418;31;33897;-77
2023/05/06 00:06:48;;;;;;;9.35;5.85;;;;;;;14.32;100.00;99906.84;4485301;31;33002;-77
2023/05/06 00:09:35;;;;;;;8.00;5.80;;;;;;;14.17;100.00;99905.41;4469407;31;32233;-76
2023/05/06 00:12:21;;;;;;;8.57;5.70;;;;;;;14.50;100.00;99910.34;4480173;31;34035;-76
2023/05/06 00:15:08;;;;;;;8.43;5.70;;;;;;;14.21;100.00;99906.41;4496498;31;33787;-76
2023/05/06 00:17:55;;;;;;;8.90;5.93;;;;;;;14.40;100.00;99911.53;4471265;31;33332;-76
2023/05/06 00:20:42;;;;;;;8.40;5.62;;;;;;;14.42;100.00;99908.44;4495107;31;32787;-76
2023/05/06 00:23:28;;;;;;;7.72;5.78;;;;;;;14.38;100.00;99911.06;4483077;31;33416;-77
2023/05/06 00:26:15;;;;;;;8.98;5.80;;;;;;;14.44;100.00;99917.19;4482702;31;33212;-76
2023/05/06 00:29:01;;;;;;;8.77;6.12;;;;;;;14.40;100.00;99922.56;4492703;31;33369;-76
2023/05/06 00:31:47;;;;;;;9.85;6.32;;;;;;;14.40;100.00;99911.53;4473082;31;33934;-76
2023/05/06 00:34:34;;;;;;;9.70;6.32;;;;;;;14.28;100.00;99911.41;4472067;31;34597;-76
2023/05/06 00:37:20;;;;;;;9.27;5.90;;;;;;;14.09;100.00;99909.03;4495761;31;33769;-76
2023/05/06 00:40:07;;;;;;;10.30;6.57;;;;;;;14.13;100.00;99916.28;4471510;31;32909;-76
2023/05/06 00:42:54;;;;;;;8.40;5.97;;;;;;;14.00;100.00;99916.47;4482262;31;35307;-76
2023/05/06 00:45:40;;;;;;;9.43;6.55;;;;;;;13.71;100.00;99912.47;4481871;31;35082;-76
2023/05/06 00:48:27;;;;;;;8.57;6.35;;;;;;;14.09;100.00;99906.28;4483155;31;34627;-76
2023/05/06 00:51:13;;;;;;;9.93;6.40;;;;;;;14.06;100.00;99910.50;4472940;31;32985;-76
2023/05/06 00:54:01;;;;;;;9.05;6.28;;;;;;;13.79;100.00;99903.41;4462051;31;33777;-76
2023/05/06 00:56:47;;;;;;;8.97;6.10;;;;;;;14.10;100.00;99905.94;4470055;31;35031;-76
2023/05/06 00:59:33;;;;;;;8.95;6.10;;;;;;;14.32;100.00;99904.91;4484219;31;34777;-76
2023/05/06 01:02:19;;;;;;;9.68;6.25;;;;;;;14.20;100.00;99901.19;4461980;31;33470;-76
2023/05/06 01:05:07;;;;;;;10.35;6.28;;;;;;;14.25;100.00;99896.31;4483448;31;34748;-76
2023/05/06 01:08:05;;;;;;;8.60;6.20;;;;;;;14.33;100.00;99897.44;4470372;31;35074;-76
2023/05/06 01:10:56;;;;;;;9.27;6.45;;;;;;;14.11;100.00;99903.97;4472068;31;33856;-76
2023/05/06 01:14:01;;;;;;;9.65;6.65;;;;;;;14.10;100.00;99903.19;4484267;31;33323;-76
2023/05/06 01:16:53;;;;;;;10.82;6.85;;;;;;;14.10;100.00;99903.19;4462356;31;33304;-76
2023/05/06 01:19:58;;;;;;;10.63;7.37;;;;;;;13.59;100.00;99896.63;4484663;31;34147;-75
2023/05/06 01:22:44;;;;;;;9.52;6.85;;;;;;;13.67;100.00;99895.81;4484746;31;33373;-76
2023/05/06 01:25:32;;;;;;;8.80;6.57;;;;;;;13.39;100.00;99889.81;4473120;31;33318;-76
2023/05/06 01:28:19;;;;;;;11.55;7.20;;;;;;;13.87;100.00;99888.81;4483361;31;33802;-76
2023/05/06 01:31:09;;;;;;;11.00;6.97;;;;;;;13.11;100.00;99899.47;4496130;31;34051;-76
2023/05/06 01:34:05;;;;;;;10.40;6.80;;;;;;;13.10;100.00;99889.63;4481461;31;33907;-76
2023/05/06 01:36:54;;;;;;;10.75;7.30;;;;;;;13.26;100.00;99893.53;4470255;31;34200;-75
2023/05/06 01:39:40;;;;;;;9.90;6.62;;;;;;;12.93;100.00;99888.44;4494078;31;33629;-76
2023/05/06 01:42:31;;;;;;;11.02;7.53;;;;;;;13.46;100.00;99884.66;4470107;31;32600;-76
2023/05/06 01:45:18;;;;;;;10.68;6.70;;;;;;;13.58;100.00;99886.75;4481407;31;32311;-76
2023/05/06 01:48:05;;;;;;;10.60;6.87;;;;;;;13.72;100.00;99892.09;4471237;31;34118;-76
2023/05/06 01:50:52;;;;;;;10.82;7.20;;;;;;;13.14;100.00;99887.81;4471894;31;33769;-75
2023/05/06 01:53:38;;;;;;;10.68;7.12;;;;;;;13.09;100.00;99882.47;4469290;31;35135;-75
2023/05/06 01:56:25;;;;;;;11.57;6.80;;;;;;;13.26;100.00;99888.03;4484108;31;33982;-75
2023/05/06 01:59:12;;;;;;;8.90;6.97;;;;;;;13.00;100.00;99891.50;4472524;31;34332;-76
2023/05/06 02:01:58;;;;;;;10.50;6.80;;;;;;;13.27;100.00;99890.47;4481004;31;33377;-75
2023/05/06 02:04:45;;;;;;;9.03;6.47;;;;;;;13.55;100.00;99886.56;4493422;31;34026;-75
2023/05/06 02:07:32;;;;;;;8.90;6.10;;;;;;;13.82;100.00;99897.22;4480985;31;33751;-75
2023/05/06 02:10:18;;;;;;;10.45;6.37;;;;;;;13.85;100.00;99885.56;4492962;31;33876;-75
2023/05/06 02:13:05;;;;;;;8.98;5.97;;;;;;;13.99;100.00;99884.56;4480368;31;34655;-75
2023/05/06 02:15:53;;;;;;;8.98;6.05;;;;;;;14.11;100.00;99890.19;4480332;31;33613;-75
2023/05/06 02:18:40;;;;;;;11.30;6.95;;;;;;;13.82;100.00;99891.72;4484625;31;34271;-75
2023/05/06 02:21:27;;;;;;;9.15;6.05;;;;;;;13.31;100.00;99881.56;4473087;31;33332;-75
2023/05/06 02:24:13;;;;;;;9.27;7.17;;;;;;;13.58;100.00;99880.44;4461120;31;33528;-75
2023/05/06 02:27:01;;;;;;;9.32;6.57;;;;;;;13.37;100.00;99891.28;4482399;31;34714;-76
2023/05/06 02:29:47;;;;;;;9.55;6.53;;;;;;;13.39;100.00;99887.06;4483366;31;33707;-76
2023/05/06 02:32:34;;;;;;;8.80;6.93;;;;;;;13.29;100.00;99906.66;4474008;31;32994;-75
2023/05/06 02:35:22;;;;;;;8.65;6.50;;;;;;;12.82;100.00;99896.19;4482050;31;32546;-75
2023/05/06 02:38:08;;;;;;;9.35;6.40;;;;;;;13.60;100.00;99891.91;4473231;31;35217;-75
2023/05/06 02:40:54;;;;;;;11.10;6.97;;;;;;;13.63;100.00;99883.84;4494016;31;33316;-75
2023/05/06 02:43:40;;;;;;;9.55;6.50;;;;;;;13.52;100.00;99896.31;4483190;31;33349;-75
2023/05/06 02:46:27;;;;;;;9.73;7.20;;;;;;;13.45;100.00;99898.72;4470064;31;34686;-75
2023/05/06 02:49:14;;;;;;;10.10;7.20;;;;;;;13.46;100.00;99890.16;4480791;31;34148;-75
2023/05/06 02:52:00;;;;;;;8.95;6.95;;;;;;;12.71;100.00;99897.59;4473371;31;33478;-75
2023/05/06 02:54:46;;;;;;;10.20;7.40;;;;;;;12.84;100.00;99901.37;4462027;31;33167;-75
2023/05/06 02:57:33;;;;;;;9.67;6.90;;;;;;;13.10;100.00;99901.41;4482324;31;34673;-74
2023/05/06 03:00:19;;;;;;;9.53;6.90;;;;;;;13.39;100.00;99895.31;4496526;31;34683;-75
2023/05/06 03:03:07;;;;;;;8.88;6.87;;;;;;;13.13;100.00;99897.22;4482101;31;33453;-75
2023/05/06 03:05:55;;;;;;;10.35;6.65;;;;;;;13.22;100.00;99890.59;4485478;31;34238;-75
2023/05/06 03:08:42;;;;;;;9.73;7.10;;;;;;;13.19;100.00;99891.22;4497059;31;34790;-75
2023/05/06 03:11:30;;;;;;;8.55;6.20;;;;;;;13.16;100.00;99900.13;4483260;31;35048;-74
2023/05/06 03:14:17;;;;;;;9.75;6.78;;;;;;;13.10;100.00;99895.13;4493744;31;34351;-74
2023/05/06 03:17:04;;;;;;;10.70;7.25;;;;;;;13.02;100.00;99891.22;4493666;31;33442;-74
2023/05/06 03:19:52;;;;;;;9.45;7.10;;;;;;;12.51;100.00;99893.50;4493343;31;34704;-74
2023/05/06 03:22:41;;;;;;;9.37;7.07;;;;;;;12.80;100.00;99892.94;4463275;31;34078;-74
2023/05/06 03:25:28;;;;;;;10.35;7.05;;;;;;;13.04;100.00;99892.50;4485276;31;34680;-75
2023/05/06 03:28:15;;;;;;;11.50;7.78;;;;;;;12.78;100.00;99889.72;4474446;31;33273;-74
2023/05/06 03:31:03;;;;;;;11.67;7.43;;;;;;;12.88;100.00;99888.59;4472656;31;33726;-74
2023/05/06 03:33:51;;;;;;;10.65;7.50;;;;;;;12.65;100.00;99892.56;4483939;31;34135;-74
2023/05/06 03:36:38;;;;;;;11.23;7.80;;;;;;;12.79;100.00;99877.56;4472532;31;33481;-75
2023/05/06 03:39:24;;;;;;;10.13;7.60;;;;;;;12.79;100.00;99880.31;4495074;31;33368;-75
2023/05/06 03:42:11;;;;;;;10.87;7.97;;;;;;;12.92;100.00;99886.00;4495547;31;33502;-74
2023/05/06 03:44:57;;;;;;;11.33;8.03;;;;;;;12.64;100.00;99890.97;4471805;31;34115;-74
2023/05/06 03:47:45;;;;;;;11.45;7.82;;;;;;;12.71;100.00;99892.09;4485069;31;33741;-74
2023/05/06 03:50:33;;;;;;;13.30;8.77;;;;;;;12.79;100.00;99894.06;4471417;31;33527;-75
2023/05/06 03:53:20;;;;;;;11.23;8.05;;;;;;;12.50;100.00;99891.88;4474505;31;33824;-74
2023/05/06 03:56:08;;;;;;;9.75;7.65;;;;;;;12.74;100.00;99896.16;4483752;31;35137;-74
2023/05/06 03:58:54;;;;;;;11.27;7.97;;;;;;;12.71;100.00;99892.09;4497185;31;33852;-74
2023/05/06 04:01:41;;;;;;;11.00;8.30;;;;;;;12.69;100.00;99894.34;4481149;31;33260;-74
2023/05/06 04:04:28;;;;;;;11.77;7.85;;;;;;;12.17;100.00;99910.63;4483584;31;33079;-74
2023/05/06 04:07:15;;;;;;;10.63;8.18;;;;;;;12.44;100.00;99908.84;4496237;31;35138;-74
2023/05/06 04:10:02;;;;;;;12.73;8.30;;;;;;;12.68;100.00;99913.94;4485527;31;33720;-74
2023/05/06 04:12:49;;;;;;;11.07;8.30;;;;;;;12.80;100.00;99905.88;4471951;31;34142;-74
2023/05/06 04:15:37;;;;;;;12.85;8.00;;;;;;;12.03;100.00;99899.72;4473584;31;33778;-74
2023/05/06 04:18:24;;;;;;;11.75;7.70;;;;;;;12.89;100.00;99906.69;4481732;31;34630;-74
2023/05/06 04:21:11;;;;;;;11.85;7.82;;;;;;;12.45;100.00;99915.94;4482134;31;31962;-74
2023/05/06 04:23:58;;;;;;;11.88;8.32;;;;;;;11.24;100.00;99909.28;4496207;31;33321;-74
2023/05/06 04:26:45;;;;;;;11.88;8.05;;;;;;;10.93;100.00;99911.03;4474237;31;33689;-74
2023/05/06 04:29:31;;;;;;;11.45;7.68;;;;;;;12.31;100.00;99910.53;4483682;31;35131;-74
2023/05/06 04:32:19;;;;;;;9.75;7.40;;;;;;;12.49;100.00;99906.72;4495764;31;33851;-74
2023/05/06 04:35:06;;;;;;;11.05;8.07;;;;;;;13.07;100.00;99904.81;4480867;31;33349;-74
2023/05/06 04:37:55;;;;;;;10.82;7.85;;;;;;;12.81;100.00;99924.00;4471247;31;34637;-74
2023/05/06 04:40:41;;;;;;;10.80;8.53;;;;;;;11.23;100.00;99913.12;4494820;31;34187;-74
2023/05/06 04:43:28;;;;;;;12.20;8.18;;;;;;;12.32;100.00;99915.72;4495515;31;33517;-74
2023/05/06 04:46:15;;;;;;;11.20;8.55;;;;;;;11.67;100.00;99914.31;4495432;31;33608;-74
2023/05/06 04:49:03;;;;;;;13.48;8.65;;;;;;;11.19;100.00;99920.38;4495868;31;33742;-74
2023/05/06 04:51:49;;;;;;;12.15;8.75;;;;;;;12.34;100.00;99915.41;4465662;31;33975;-74
2023/05/06 04:54:36;;;;;;;12.27;8.65;;;;;;;12.58;100.00;99926.84;4495434;31;34676;-74
2023/05/06 04:57:23;;;;;;;12.07;8.82;;;;;;;11.45;100.00;99928.03;4474205;31;33345;-75
2023/05/06 05:00:11;;;;;;;13.82;8.73;;;;;;;11.38;100.00;99930.38;4473002;31;33773;-75
2023/05/06 05:02:57;;;;;;;11.32;8.00;;;;;;;11.59;100.00;99933.47;4495393;31;34192;-75
2023/05/06 05:05:44;;;;;;;10.98;7.60;;;;;;;11.63;100.00;99942.69;4483652;31;32650;-75
2023/05/06 05:08:31;;;;;;;11.07;7.85;;;;;;;12.90;100.00;99932.28;4473989;31;33470;-75
2023/05/06 05:11:19;;;;;;;12.35;8.18;;;;;;;12.85;100.00;99938.72;4497316;31;32893;-75
2023/05/06 05:14:05;;;;;;;9.07;7.12;;;;;;;13.39;100.00;99936.59;4483511;31;34016;-75
2023/05/06 05:16:51;;;;;;;9.60;7.25;;;;;;;13.87;100.00;99932.87;4475587;31;33858;-75
2023/05/06 05:19:37;;;;;;;11.00;7.75;;;;;;;13.97;100.00;99939.19;4483710;31;33299;-75
2023/05/06 05:22:25;;;;;;;12.48;7.90;;;;;;;13.75;100.00;99929.97;4472353;31;33799;-75
2023/05/06 05:25:12;;;;;;;11.75;7.80;;;;;;;14.07;100.00;99931.38;4496763;31;34065;-75
2023/05/06 05:28:00;;;;;;;12.95;8.15;;;;;;;14.29;100.00;99932.31;4483764;31;33730;-75
2023/05/06 05:30:46;;;;;;;12.50;8.80;;;;;;;14.54;100.00;99936.16;4471471;31;33015;-75
2023/05/06 05:33:33;;;;;;;11.77;8.80;;;;;;;14.17;100.00;99931.06;4492846;31;34818;-75
2023/05/06 05:36:20;;;;;;;12.95;9.43;;;;;;;14.11;100.00;99935.09;4478174;31;32866;-75
2023/05/06 05:39:08;;;;;;;13.05;8.98;;;;;;;13.17;100.00;99936.69;4482370;31;33662;-75
2023/05/06 05:41:54;;;;;;;12.93;9.18;;;;;;;13.49;100.00;99936.31;4480557;31;34341;-75
2023/05/06 05:44:41;;;;;;;13.75;9.70;;;;;;;13.62;100.00;99930.94;4471295;31;34773;-75
2023/05/06 05:47:28;;;;;;;12.97;9.00;;;;;;;13.84;100.00;99927.22;4491467;31;34175;-75
2023/05/06 05:50:15;;;;;;;12.85;9.02;;;;;;;13.93;100.00;99931.56;4493226;31;33797;-75
2023/05/06 05:53:01;;;;;;;14.70;9.90;;;;;;;14.49;100.00;99926.09;4491390;31;33355;-75
2023/05/06 05:55:48;;;;;;;12.27;9.50;;;;;;;15.00;100.00;99926.22;4493154;31;34380;-75
2023/05/06 05:58:35;;;;;;;14.95;9.63;;;;;;;15.45;100.00;99922.81;4479756;31;34085;-75
2023/05/06 06:01:22;;;;;;;12.05;9.23;;;;;;;15.14;100.00;99918.50;4492147;31;32676;-75
2023/05/06 06:04:08;;;;;;;12.82;9.13;;;;;;;14.97;100.00;99915.81;4483079;31;33339;-75
2023/05/06 06:06:58;;;;;;;12.63;9.57;;;;;;;15.64;100.00;99925.09;4496750;31;33751;-75
2023/05/06 06:09:45;;;;;;;13.57;9.47;;;;;;;16.20;100.00;99914.53;4484521;31;34168;-76
2023/05/06 06:12:32;;;;;;;12.77;9.70;;;;;;;16.46;100.00;99916.97;4483556;31;33706;-76
2023/05/06 06:15:20;;;;;;;14.20;10.00;;;;;;;16.53;100.00;99908.91;4471726;31;32843;-75
2023/05/06 06:18:07;;;;;;;12.68;9.60;;;;;;;16.95;100.00;99917.03;4474263;31;33665;-76
2023/05/06 06:20:55;;;;;;;14.15;9.40;;;;;;;17.02;100.00;99920.03;4497737;31;34145;-76
2023/05/06 06:23:41;;;;;;;12.37;9.52;;;;;;;16.72;100.00;99913.09;4468984;31;33266;-76
2023/05/06 06:26:28;;;;;;;13.15;9.70;;;;;;;17.24;100.00;99912.38;4494374;31;34302;-75
2023/05/06 06:29:15;;;;;;;13.68;10.20;;;;;;;17.42;100.00;99910.97;4496134;31;34676;-75
2023/05/06 06:32:02;;;;;;;13.63;9.90;;;;;;;17.51;100.00;99913.59;4494390;31;34103;-75
2023/05/06 06:34:48;;;;;;;12.33;9.53;;;;;;;17.47;100.00;99910.69;4492994;31;34813;-76
2023/05/06 06:37:35;;;;;;;12.85;9.57;;;;;;;18.03;100.00;99914.69;4462563;32;33417;-75
2023/05/06 06:40:21;;;;;;;14.13;9.63;;;;;;;17.92;100.00;99915.19;4463304;32;33457;-75
2023/05/06 06:43:08;;;;;;;11.90;9.75;;;;;;;18.02;100.00;99913.09;4462627;32;36789;-75
2023/05/06 06:46:00;;;;;;;13.73;9.83;;;;;;;18.03;100.00;99906.38;4460581;32;34545;-76
2023/05/06 06:49:03;;;;;;;13.97;9.60;;;;;;;18.50;100.00;99905.59;4445565;32;33829;-75
2023/05/06 06:51:50;;;;;;;14.00;9.73;;;;;;;18.76;100.00;99905.91;4467632;32;35285;-75
2023/05/06 06:54:37;;;;;;;12.88;9.32;;;;;;;18.67;100.00;99905.25;4466143;32;34142;-76
2023/05/06 06:57:23;;;;;;;12.70;9.10;;;;;;;18.54;100.00;99898.19;4448553;32;33801;-76
2023/05/06 07:00:10;;;;;;;13.53;9.80;;;;;;;18.33;100.00;99907.59;4448682;32;31635;-75
2023/05/06 07:02:57;;;;;;;13.18;10.35;;;;;;;18.14;100.00;99908.25;4446504;32;33581;-77
2023/05/06 07:05:44;;;;;;;12.17;9.60;;;;;;;17.84;100.00;99916.13;4446671;32;34465;-75
2023/05/06 07:08:30;;;;;;;13.98;10.30;;;;;;;18.28;100.00;99904.25;4445646;32;34046;-76
2023/05/06 07:11:16;;;;;;;13.98;10.05;;;;;;;18.31;100.00;99907.13;4444211;32;33305;-76
2023/05/06 07:14:03;;;;;;;12.63;9.52;;;;;;;18.40;100.00;99902.19;4444648;32;33702;-76
2023/05/06 07:16:49;;;;;;;13.40;10.02;;;;;;;19.06;100.00;99899.84;4445273;32;33515;-76
2023/05/06 07:19:36;;;;;;;13.30;10.07;;;;;;;19.20;100.00;99914.06;4444536;32;32136;-77
2023/05/06 07:22:23;;;;;;;14.27;9.93;;;;;;;19.65;100.00;99909.06;4446099;32;32865;-77
2023/05/06 07:25:09;;;;;;;12.57;9.90;;;;;;;19.54;100.00;99914.41;4442903;32;32785;-76
2023/05/06 07:27:56;;;;;;;15.63;10.07;;;;;;;19.55;100.00;99916.00;4440353;32;33630;-77
2023/05/06 07:30:43;;;;;;;13.65;10.40;;;;;;;19.89;98.05;99908.00;4447506;32;33947;-77
2023/05/06 07:33:30;;;;;;;15.50;10.60;;;;;;;20.11;97.54;99910.00;4446543;32;33147;-76
2023/05/06 07:36:16;;;;;;;13.70;10.25;;;;;;;20.56;94.86;99911.25;4456505;31;34375;-77
2023/05/06 07:39:03;;;;;;;13.40;9.82;;;;;;;21.07;92.43;99907.28;4448645;31;33993;-76
2023/05/06 07:41:50;;;;;;;13.27;10.47;;;;;;;20.64;93.02;99910.19;4474100;31;33736;-76
2023/05/06 07:44:37;;;;;;;12.63;9.95;;;;;;;21.03;90.66;99910.03;4467616;31;33333;-76
2023/05/06 07:47:30;;;;;;;15.27;10.07;;;;;;;21.09;91.38;99908.50;4475253;31;34175;-76
2023/05/06 07:50:17;;;;;;;14.15;10.30;;;;;;;20.83;95.79;99916.84;4476130;31;33621;-77
2023/05/06 07:53:03;;;;;;;11.90;9.50;;;;;;;21.09;93.37;99908.50;4459168;31;33117;-77
2023/05/06 07:55:51;;;;;;;14.80;10.52;;;;;;;21.75;89.77;99905.44;4465172;31;31379;-77
2023/05/06 07:58:37;;;;;;;13.60;11.05;;;;;;;21.32;92.41;99907.66;4474808;31;33229;-76
2023/05/06 08:01:24;;;;;;;15.75;11.10;;;;;;;21.62;89.31;99907.66;4475812;31;32292;-77
2023/05/06 08:04:11;;;;;;;13.30;10.45;;;;;;;22.23;87.58;99913.97;4460991;31;34653;-76
2023/05/06 08:06:58;;;;;;;12.50;10.70;;;;;;;21.88;87.59;99914.34;4474870;31;32909;-76
2023/05/06 08:09:45;;;;;;;16.20;11.38;;;;;;;22.38;86.90;99917.69;4475204;31;34556;-77
2023/05/06 08:12:31;;;;;;;15.05;11.80;;;;;;;22.16;86.41;99916.66;4475751;31;33474;-77
2023/05/06 08:15:18;;;;;;;15.38;12.52;;;;;;;22.57;85.20;99913.88;4467392;31;33603;-77
2023/05/06 08:18:04;;;;;;;15.70;11.80;;;;;;;23.01;79.56;99915.84;4471484;31;32742;-77
2023/05/06 08:21:07;;;;;;;16.67;12.93;;;;;;;23.06;81.91;99907.91;4476125;31;33333;-78
2023/05/06 08:23:54;;;;;;;17.03;12.67;;;;;;;23.25;80.71;99912.44;4463319;31;33560;-77
2023/05/06 08:26:41;;;;;;;16.35;14.35;;;;;;;23.51;83.50;99918.97;4466932;31;35669;-77
2023/05/06 08:29:28;;;;;;;19.50;14.98;;;;;;;22.98;83.08;99914.63;4468679;31;34460;-78
2023/05/06 08:32:14;;;;;;;16.75;13.65;;;;;;;23.18;78.87;99917.97;4475062;31;34293;-78
2023/05/06 08:35:01;;;;;;;18.02;14.30;;;;;;;23.50;81.32;99917.34;4474738;31;34084;-78
2023/05/06 08:37:47;;;;;;;14.73;12.35;;;;;;;23.67;77.16;99916.63;4473242;31;33758;-77
2023/05/06 08:40:39;;;;;;;14.40;12.25;;;;;;;23.98;78.37;99908.78;4477084;31;33769;-77
2023/05/06 08:43:26;;;;;;;14.10;11.48;;;;;;;23.70;78.30;99901.87;4466459;31;33886;-77
2023/05/06 08:46:13;;;;;;;13.23;10.93;;;;;;;24.12;76.44;99911.59;4466246;31;32349;-77
2023/05/06 08:48:59;;;;;;;14.45;10.40;;;;;;;24.10;74.23;99905.59;4476508;31;34487;-77
2023/05/06 08:51:48;;;;;;;12.03;10.17;;;;;;;23.76;74.14;99902.28;4476183;31;32925;-78
2023/05/06 08:54:35;;;;;;;13.57;9.68;;;;;;;23.59;72.86;99909.37;4466811;31;34112;-77
2023/05/06 08:57:21;;;;;;;11.73;9.60;;;;;;;24.12;74.23;99906.00;4464131;31;35026;-77
2023/05/06 09:00:09;;;;;;;13.70;10.00;;;;;;;23.50;72.84;99911.75;4456495;31;33702;-78
2023/05/06 09:02:56;;;;;;;12.25;9.70;;;;;;;24.35;73.13;99904.84;4466084;31;33804;-78
2023/05/06 09:05:43;;;;;;;13.52;9.40;;;;;;;24.46;71.88;99902.91;4473834;31;33296;-78
2023/05/06 09:08:29;;;;;;;13.68;10.05;;;;;;;24.19;73.92;99896.81;4458452;31;34738;-77
2023/05/06 09:11:28;;;;;;;12.43;9.35;;;;;;;24.40;69.23;99901.66;4472911;31;34268;-77
2023/05/06 09:14:16;;;;;;;11.20;8.60;;;;;;;24.55;67.31;99903.28;4464447;31;32985;-77
2023/05/06 09:17:02;;;;;;;12.43;9.93;;;;;;;24.77;69.56;99892.09;4464241;31;33684;-77
2023/05/06 09:19:53;;;;;;;13.15;9.60;;;;;;;24.81;67.74;99892.88;4471230;31;34301;-77
2023/05/06 09:22:40;;;;;;;11.20;8.80;;;;;;;25.25;64.90;99886.84;4471489;31;34071;-78
2023/05/06 09:25:27;;;;;;;12.93;9.52;;;;;;;24.73;66.23;99885.69;4474696;31;31707;-78
2023/05/06 09:28:15;;;;;;;11.07;8.55;;;;;;;24.66;66.36;99881.69;4467348;31;34652;-78
2023/05/06 09:31:02;;;;;;;11.35;9.20;;;;;;;24.20;67.98;99881.63;4478251;31;34194;-74
2023/05/06 09:33:50;;;;;;;10.23;8.07;;;;;;;24.98;67.49;99886.44;4456658;31;34954;-79
2023/05/06 09:36:36;;;;;;;10.82;8.52;;;;;;;25.37;65.49;99880.00;4467491;31;32791;-79
2023/05/06 09:39:26;;;;;;;11.23;8.50;;;;;;;25.90;62.38;99889.41;4464656;31;33210;-78
2023/05/06 09:42:13;;;;;;;9.85;7.97;;;;;;;25.05;61.46;99877.25;4465418;31;33993;-79
2023/05/06 09:45:00;;;;;;;10.80;7.57;;;;;;;25.82;59.16;99880.22;4476198;31;32207;-80
2023/05/06 09:47:52;;;;;;;8.55;6.85;;;;;;;24.55;60.68;99871.69;4460346;31;32628;-80
2023/05/06 09:50:40;;;;;;;8.73;7.28;;;;;;;24.76;57.92;99868.88;4466955;31;33126;-79
2023/05/06 09:53:26;;;;;;;10.82;7.15;;;;;;;24.31;59.64;99873.25;4462824;31;34163;-79
2023/05/06 09:56:14;;;;;;;8.93;6.47;;;;;;;24.99;63.08;99864.81;4474503;31;31991;-79
2023/05/06 09:59:03;;;;;;;9.33;6.87;;;;;;;26.18;60.23;99857.53;4459123;31;33156;-80
2023/05/06 10:01:49;;;;;;;7.73;4.70;;;;;;;26.89;59.60;99851.34;4459071;31;33272;-79
2023/05/06 10:04:43;;;;;;;7.23;5.00;;;;;;;24.96;54.26;99849.66;4468265;31;34536;-79
2023/05/06 10:07:31;;;;;;;7.20;4.68;;;;;;;26.51;52.80;99853.31;4469377;31;35783;-79
2023/05/06 10:10:17;;;;;;;4.90;4.10;;;;;;;27.27;52.15;99845.75;4475840;31;33320;-79
2023/05/06 10:13:03;;;;;;;7.28;5.30;;;;;;;26.12;50.48;99850.78;4475725;31;32921;-78
2023/05/06 10:15:50;;;;;;;7.82;5.55;;;;;;;25.13;51.03;99842.38;4467167;31;33350;-79
2023/05/06 10:18:37;;;;;;;7.70;4.60;;;;;;;24.05;55.15;99840.81;4468013;31;33677;-78
2023/05/06 10:21:26;;;;;;;7.72;5.62;;;;;;;23.99;53.70;99848.78;4464308;31;31765;-79
2023/05/06 10:24:15;;;;;;;8.40;5.47;;;;;;;23.60;55.28;99843.88;4465331;31;35227;-79
2023/05/06 10:27:03;;;;;;;8.15;6.00;;;;;;;24.69;54.53;99838.84;4467701;31;32381;-79
2023/05/06 10:29:52;;;;;;;8.43;5.53;;;;;;;24.92;56.14;99829.22;4469356;31;33685;-79
2023/05/06 10:32:41;;;;;;;7.60;5.10;;;;;;;24.58;55.26;99835.25;4468006;31;33107;-79
2023/05/06 10:35:40;;;;;;;6.65;4.68;;;;;;;23.97;58.65;99824.03;4468721;31;34251;-79
2023/05/06 10:38:35;;;;;;;8.43;5.03;;;;;;;23.69;57.06;99824.72;4467033;31;32535;-79
2023/05/06 10:41:24;;;;;;;10.57;4.70;;;;;;;24.21;59.47;99818.84;4470110;31;33529;-79
2023/05/06 10:44:11;;;;;;;5.45;4.18;;;;;;;24.42;58.05;99809.66;4444525;31;32882;-80
2023/05/06 10:46:59;;;;;;;6.57;5.15;;;;;;;24.22;60.17;99809.25;4469059;31;32636;-79
2023/05/06 10:50:21;;;;;;;7.87;4.72;;;;;;;23.78;56.84;99808.38;4467583;31;32421;-80
2023/05/06 10:53:07;;;;;;;6.70;4.40;;;;;;;24.41;58.42;99806.03;4467725;31;34070;-80
2023/05/06 10:56:07;;;;;;;7.35;5.15;;;;;;;24.70;59.39;99800.44;4477750;31;31471;-80
2023/05/06 10:58:56;;;;;;;8.20;4.87;;;;;;;23.43;58.36;99797.88;4473940;31;33317;-79
2023/05/06 11:01:43;;;;;;;6.75;4.80;;;;;;;23.54;58.34;99795.91;4465988;31;33597;-79
2023/05/06 11:04:30;;;;;;;7.93;4.75;;;;;;;24.60;55.00;99802.06;4465673;31;31980;-80
2023/05/06 11:07:23;;;;;;;5.60;4.55;;;;;;;24.95;57.51;99797.56;4467951;31;33350;-80
2023/05/06 11:10:10;;;;;;;8.30;5.03;;;;;;;25.47;54.31;99803.44;4477714;31;33358;-79
2023/05/06 11:12:56;;;;;;;5.93;4.35;;;;;;;24.60;51.42;99799.25;4462860;31;33826;-80
2023/05/06 11:15:45;;;;;;;7.35;4.20;;;;;;;24.93;54.46;99799.97;4467695;31;34157;-80
2023/05/06 11:18:35;;;;;;;7.28;4.40;;;;;;;24.52;55.04;99797.66;4477369;31;32250;-79
2023/05/06 11:21:31;;;;;;;6.70;4.15;;;;;;;24.86;51.85;99794.41;4473304;31;33565;-80
2023/05/06 11:24:28;;;;;;;6.78;4.22;;;;;;;24.42;51.97;99792.84;4474177;31;33049;-80
2023/05/06 11:27:19;;;;;;;6.33;4.30;;;;;;;24.39;52.11;99788.84;4476013;31;35099;-78
2023/05/06 11:30:12;;;;;;;5.93;4.70;;;;;;;23.77;54.92;99792.81;4457924;31;33124;-78
2023/05/06 11:33:03;;;;;;;6.62;4.10;;;;;;;23.89;55.21;99783.22;4474248;31;33277;-79
2023/05/06 11:35:52;;;;;;;6.30;4.22;;;;;;;24.02;55.35;99789.22;4469569;31;34021;-78
2023/05/06 11:38:50;;;;;;;8.13;4.62;;;;;;;22.80;54.62;99797.16;4466441;31;33115;-79
2023/05/06 11:41:40;;;;;;;8.77;4.65;;;;;;;23.34;54.15;99795.44;4462151;31;34877;-79
2023/05/06 11:44:28;;;;;;;7.43;4.62;;;;;;;23.01;55.23;99793.69;4473722;31;33717;-78
2023/05/06 11:47:15;;;;;;;7.60;5.80;;;;;;;22.28;56.25;99796.38;4453822;31;34159;-78
2023/05/06 11:50:06;;;;;;;8.00;5.20;;;;;;;22.22;57.00;99795.13;4475717;31;32345;-79
2023/05/06 11:52:52;;;;;;;9.60;5.30;;;;;;;22.69;58.62;99801.88;4463259;31;32609;-78
2023/05/06 11:55:38;;;;;;;8.60;4.90;;;;;;;22.58;58.39;99799.00;4465217;31;33099;-79
2023/05/06 11:58:26;;;;;;;8.90;5.45;;;;;;;23.11;60.73;99806.94;4468949;31;33650;-79
2023/05/06 12:01:13;;;;;;;8.27;5.00;;;;;;;22.51;60.07;99803.72;4467055;31;33625;-79
2023/05/06 12:04:00;;;;;;;6.93;5.53;;;;;;;23.32;59.16;99806.22;4475280;31;33102;-80
2023/05/06 12:06:47;;;;;;;7.55;5.05;;;;;;;23.16;60.54;99799.34;4465285;31;33774;-77
2023/05/06 12:09:34;;;;;;;12.52;4.87;;;;;;;23.14;59.69;99805.34;4466233;31;32725;-79
2023/05/06 12:12:22;;;;;;;7.87;4.60;;;;;;;23.13;59.80;99798.94;4455428;31;33989;-79
2023/05/06 12:15:09;;;;;;;9.77;4.90;;;;;;;22.94;60.66;99807.62;4455018;31;33401;-79
2023/05/06 12:17:56;;;;;;;7.60;4.50;;;;;;;22.53;60.72;99796.56;4465780;31;33760;-79
2023/05/06 12:20:43;;;;;;;6.82;4.55;;;;;;;23.11;61.07;99809.72;4467754;31;33984;-79
2023/05/06 12:23:29;;;;;;;6.22;4.65;;;;;;;22.93;60.00;99794.81;4476969;31;33906;-81
2023/05/06 12:26:18;;;;;;;6.65;4.80;;;;;;;22.92;59.33;99798.03;4475536;31;33055;-81
2023/05/06 12:29:06;;;;;;;6.70;4.57;;;;;;;22.63;60.28;99789.47;4472993;31;34321;-80
2023/05/06 12:32:06;;;;;;;5.87;4.70;;;;;;;22.67;61.56;99788.28;4456785;31;33921;-81
2023/05/06 12:34:53;;;;;;;6.15;4.18;;;;;;;22.78;60.54;99779.97;4449323;31;876814;-81
2023/05/06 12:37:40;;;;;;;7.12;4.87;;;;;;;22.67;62.61;99791.09;4467124;31;33226;-81
2023/05/06 12:40:26;;;;;;;7.30;4.60;;;;;;;23.04;60.44;99783.75;4452579;31;34018;-81
2023/05/06 12:43:12;;;;;;;7.07;4.60;;;;;;;22.64;61.48;99777.09;4473386;31;34162;-81
2023/05/06 12:46:06;;;;;;;6.87;4.55;;;;;;;23.10;59.30;99791.34;4476170;31;33665;-80
2023/05/06 12:48:57;;;;;;;6.68;4.62;;;;;;;22.71;60.34;99784.72;4473235;31;32776;-81
2023/05/06 12:51:43;;;;;;;7.50;4.53;;;;;;;22.82;61.17;99791.16;4474748;31;33074;-81
2023/05/06 12:54:32;;;;;;;6.30;4.40;;;;;;;22.45;62.22;99787.37;4457946;31;33364;-81
2023/05/06 12:57:19;;;;;;;6.97;4.72;;;;;;;22.45;60.39;99781.78;4464834;31;33593;-81